Time;durP1;ratioP1;P1;durP2;ratioP2;P2;SDS_P1;SDS_P2;PMS_P1;PMS_P2;Temp;Humidity;BMP_temperature;BMP_pressure;BME280_temperature;BME280_humidity;BME280_pressure;Samples;Min_cycle;Max_cycle;Signal;HPM_P1;HPM_P2
2024/01/30 00:01:52;;;;;;;18.65;8.73;;;7.60;80.20;;;;;;9179531;19;20033;-65
2024/01/30 00:04:58;;;;;;;17.63;9.48;;;7.60;80.20;;;;;;9177394;19;20086;-65
2024/01/30 00:08:06;;;;;;;19.60;8.68;;;7.50;80.20;;;;;;9175990;19;20018;-67
2024/01/30 00:11:12;;;;;;;15.88;9.23;;;7.60;80.30;;;;;;9178585;19;20022;-66
2024/01/30 00:14:20;;;;;;;13.27;8.05;;;7.60;80.30;;;;;;9179857;19;20018;-66
2024/01/30 00:17:28;;;;;;;19.35;8.65;;;7.70;80.60;;;;;;9176724;19;20022;-69
2024/01/30 00:20:35;;;;;;;13.68;7.80;;;7.70;80.50;;;;;;9179761;19;20749;-66
2024/01/30 00:23:41;;;;;;;17.23;8.43;;;7.70;80.60;;;;;;9178091;19;20484;-67
2024/01/30 00:26:48;;;;;;;25.08;8.15;;;7.70;80.60;;;;;;9176446;19;20461;-65
2024/01/30 00:29:54;;;;;;;19.58;8.35;;;7.80;80.70;;;;;;9178542;19;20026;-67
2024/01/30 00:33:04;;;;;;;17.67;8.13;;;7.80;80.70;;;;;;9175613;19;20010;-66
2024/01/30 00:36:11;;;;;;;21.42;8.60;;;7.90;81.10;;;;;;9179955;19;20602;-65
2024/01/30 00:39:19;;;;;;;14.77;7.78;;;7.90;80.70;;;;;;9178354;19;20015;-68
2024/01/30 00:42:26;;;;;;;14.98;8.32;;;8.00;81.00;;;;;;9178609;19;20014;-67
2024/01/30 00:45:33;;;;;;;13.85;8.40;;;8.10;81.20;;;;;;9176310;19;20369;-66
2024/01/30 00:48:41;;;;;;;20.63;8.82;;;8.20;81.10;;;;;;9177182;19;20011;-68
2024/01/30 00:51:49;;;;;;;16.63;8.60;;;8.00;80.90;;;;;;9177636;19;20006;-66
2024/01/30 00:54:54;;;;;;;15.55;8.18;;;8.10;81.00;;;;;;9176530;19;20580;-65
2024/01/30 00:58:02;;;;;;;21.77;8.15;;;8.10;81.10;;;;;;9178069;19;20021;-67
2024/01/30 01:01:08;;;;;;;15.68;8.23;;;8.10;81.60;;;;;;9175846;19;20018;-67
2024/01/30 01:04:21;;;;;;;19.23;7.82;;;8.20;81.10;;;;;;9176851;19;20357;-66
2024/01/30 01:07:26;;;;;;;13.50;8.52;;;8.30;81.20;;;;;;9178042;19;20575;-65
2024/01/30 01:10:34;;;;;;;21.80;8.95;;;8.20;81.00;;;;;;9174472;19;20011;-67
2024/01/30 01:13:39;;;;;;;17.20;8.50;;;8.30;81.30;;;;;;9178943;19;20013;-68
2024/01/30 01:16:47;;;;;;;15.52;9.05;;;8.30;81.10;;;;;;9174279;19;20444;-67
2024/01/30 01:19:55;;;;;;;15.38;8.38;;;8.30;81.80;;;;;;9173308;19;20030;-66
2024/01/30 01:23:03;;;;;;;16.88;8.15;;;8.40;81.20;;;;;;9176006;19;21184;-66
2024/01/30 01:26:10;;;;;;;18.55;8.82;;;8.30;81.20;;;;;;9176254;19;20019;-67
2024/01/30 01:29:17;;;;;;;13.43;8.10;;;8.50;81.20;;;;;;9169103;19;20078;-66
2024/01/30 01:32:23;;;;;;;18.98;8.75;;;8.40;81.20;;;;;;9173290;19;20014;-65
2024/01/30 01:35:34;;;;;;;16.65;7.35;;;8.50;81.60;;;;;;9175450;19;20025;-67
2024/01/30 01:38:39;;;;;;;17.23;8.48;;;8.40;81.20;;;;;;9173725;19;20021;-67
2024/01/30 01:41:47;;;;;;;16.38;8.07;;;8.40;81.00;;;;;;9174048;19;20021;-65
2024/01/30 01:44:52;;;;;;;17.17;8.13;;;8.50;81.10;;;;;;9176904;19;20369;-67
2024/01/30 01:48:00;;;;;;;21.55;8.30;;;8.50;81.20;;;;;;9175920;19;20014;-67
2024/01/30 01:51:12;;;;;;;18.92;8.68;;;8.40;81.00;;;;;;9170451;19;20014;-66
2024/01/30 01:54:21;;;;;;;14.98;8.35;;;8.50;81.00;;;;;;9173426;19;20006;-67
2024/01/30 01:57:26;;;;;;;15.68;8.35;;;8.40;80.80;;;;;;9176283;19;20023;-67
2024/01/30 02:00:34;;;;;;;17.83;9.52;;;8.40;80.90;;;;;;9170805;19;20058;-66
2024/01/30 02:03:40;;;;;;;22.23;8.95;;;8.30;81.10;;;;;;9174623;19;20019;-67
2024/01/30 02:06:51;;;;;;;19.40;8.43;;;8.40;81.00;;;;;;9174687;19;20018;-68
2024/01/30 02:09:57;;;;;;;15.50;7.50;;;8.30;80.90;;;;;;9172975;19;21612;-67
2024/01/30 02:13:05;;;;;;;21.77;8.45;;;8.30;81.00;;;;;;9175948;19;20021;-66
2024/01/30 02:16:10;;;;;;;14.57;8.18;;;8.30;81.20;;;;;;9173728;19;20589;-67
2024/01/30 02:19:19;;;;;;;21.27;9.43;;;8.40;81.00;;;;;;9173634;19;20364;-66
2024/01/30 02:22:28;;;;;;;16.00;7.85;;;8.30;80.90;;;;;;9173476;19;20041;-66
2024/01/30 02:25:44;;;;;;;25.30;8.50;;;8.30;80.90;;;;;;9173627;19;20022;-66
2024/01/30 02:28:49;;;;;;;14.32;8.00;;;8.30;81.50;;;;;;9175292;19;20329;-67
2024/01/30 02:31:57;;;;;;;14.40;7.75;;;8.30;80.90;;;;;;9175418;19;20018;-67
2024/01/30 02:35:03;;;;;;;13.40;8.00;;;8.20;80.90;;;;;;9185115;19;20014;-68
2024/01/30 02:38:13;;;;;;;19.35;8.82;;;8.30;81.10;;;;;;9183981;19;20372;-66
2024/01/30 02:41:19;;;;;;;16.13;8.43;;;8.20;81.10;;;;;;9183126;19;20014;-67
2024/01/30 02:44:26;;;;;;;18.75;8.73;;;8.20;81.00;;;;;;9183739;19;20017;-66
2024/01/30 02:47:32;;;;;;;19.25;8.98;;;8.20;81.20;;;;;;9178996;19;20015;-67
2024/01/30 02:50:39;;;;;;;19.13;9.05;;;8.20;81.10;;;;;;9182445;19;20018;-69
2024/01/30 02:53:47;;;;;;;17.73;8.77;;;8.20;81.40;;;;;;9184258;19;20487;-65
2024/01/30 02:56:55;;;;;;;18.23;8.68;;;8.20;81.30;;;;;;9179831;19;20019;-66
2024/01/30 03:00:01;;;;;;;20.42;8.13;;;8.10;81.20;;;;;;9183338;19;20014;-68
2024/01/30 03:03:08;;;;;;;19.27;8.95;;;8.10;81.40;;;;;;9184326;19;20024;-67
2024/01/30 03:06:15;;;;;;;16.75;9.45;;;8.20;81.30;;;;;;9183009;19;20090;-68
2024/01/30 03:09:25;;;;;;;18.80;9.10;;;8.20;81.30;;;;;;9183643;19;20019;-67
2024/01/30 03:12:31;;;;;;;16.95;8.52;;;8.10;81.50;;;;;;9183406;19;20025;-67
2024/01/30 03:15:38;;;;;;;19.13;9.52;;;8.10;81.40;;;;;;9183893;19;20025;-66
2024/01/30 03:18:44;;;;;;;15.10;8.63;;;8.10;81.40;;;;;;9182900;19;20018;-68
2024/01/30 03:21:52;;;;;;;21.65;9.43;;;8.10;81.50;;;;;;9182362;19;20014;-66
2024/01/30 03:25:00;;;;;;;16.80;8.60;;;8.10;81.30;;;;;;9182979;19;20022;-66
2024/01/30 03:28:08;;;;;;;21.38;8.30;;;8.10;81.40;;;;;;9179469;19;20029;-68
2024/01/30 03:31:16;;;;;;;14.95;8.45;;;8.20;81.50;;;;;;9178387;19;20014;-67
2024/01/30 03:34:24;;;;;;;21.40;9.38;;;8.10;81.40;;;;;;9182420;19;20015;-67
2024/01/30 03:37:30;;;;;;;17.40;8.10;;;8.10;81.80;;;;;;9182408;19;20014;-68
2024/01/30 03:40:40;;;;;;;17.52;8.88;;;8.10;81.50;;;;;;9181778;19;20022;-68
2024/01/30 03:43:45;;;;;;;18.80;9.05;;;8.10;81.50;;;;;;9179737;19;20019;-66
2024/01/30 03:46:53;;;;;;;15.80;8.90;;;8.00;81.40;;;;;;9179681;19;20022;-66
2024/01/30 03:49:59;;;;;;;21.17;8.73;;;8.10;81.50;;;;;;9182542;19;20022;-69
2024/01/30 03:53:06;;;;;;;17.23;9.02;;;8.00;81.50;;;;;;9180108;19;20015;-70
2024/01/30 03:56:15;;;;;;;18.25;8.75;;;8.00;81.40;;;;;;9181798;19;20025;-68
2024/01/30 03:59:23;;;;;;;18.98;8.77;;;8.00;81.60;;;;;;9181519;19;20018;-66
2024/01/30 04:02:29;;;;;;;17.10;9.00;;;8.00;81.50;;;;;;9180531;19;20047;-67
2024/01/30 04:05:37;;;;;;;24.58;9.75;;;8.00;81.50;;;;;;9179522;19;20022;-65
2024/01/30 04:08:43;;;;;;;20.60;9.32;;;8.00;81.60;;;;;;9177896;19;20472;-68
2024/01/30 04:11:53;;;;;;;25.67;10.82;;;7.90;81.50;;;;;;9179590;19;20014;-67
2024/01/30 04:14:58;;;;;;;19.10;8.98;;;7.90;81.60;;;;;;9179648;19;20018;-66
2024/01/30 04:18:06;;;;;;;19.98;9.75;;;7.90;81.50;;;;;;9179611;19;20034;-66
2024/01/30 04:21:12;;;;;;;17.80;9.90;;;7.90;81.50;;;;;;9180268;19;20014;-66
2024/01/30 04:24:19;;;;;;;20.20;9.23;;;7.90;81.60;;;;;;9180495;19;20365;-67
2024/01/30 04:27:27;;;;;;;17.98;9.00;;;7.90;81.60;;;;;;9178677;19;20019;-69
2024/01/30 04:30:35;;;;;;;19.35;9.90;;;7.90;81.70;;;;;;9179421;19;20029;-66
2024/01/30 04:33:41;;;;;;;23.98;9.98;;;7.90;81.60;;;;;;9174554;19;20007;-66
2024/01/30 04:36:48;;;;;;;25.90;9.90;;;7.90;81.60;;;;;;9179526;19;20022;-65
2024/01/30 04:39:54;;;;;;;21.67;9.85;;;7.90;81.60;;;;;;9178879;19;20030;-66
2024/01/30 04:43:04;;;;;;;25.60;10.10;;;7.90;81.70;;;;;;9178629;19;20049;-66
2024/01/30 04:46:10;;;;;;;19.67;10.00;;;7.90;81.80;;;;;;9178698;19;20462;-68
2024/01/30 04:49:18;;;;;;;15.25;8.70;;;7.90;82.40;;;;;;9178224;19;20014;-67
2024/01/30 04:52:23;;;;;;;18.48;9.25;;;7.90;81.80;;;;;;9179286;19;20021;-68
2024/01/30 04:55:31;;;;;;;18.58;9.32;;;7.90;81.90;;;;;;9177604;19;20029;-68
2024/01/30 04:58:39;;;;;;;20.27;9.15;;;7.90;81.90;;;;;;9179658;19;20081;-67
2024/01/30 05:01:46;;;;;;;18.95;9.57;;;7.80;81.80;;;;;;9178952;19;20018;-67
2024/01/30 05:04:52;;;;;;;20.05;10.10;;;7.90;81.90;;;;;;9178062;19;20014;-66
2024/01/30 05:08:00;;;;;;;19.98;9.55;;;7.90;81.90;;;;;;9175285;19;20022;-66
2024/01/30 05:11:06;;;;;;;21.88;9.63;;;7.90;81.90;;;;;;9177925;19;20079;-65
2024/01/30 05:14:22;;;;;;;27.90;10.73;;;7.90;82.10;;;;;;9177203;19;20018;-67
2024/01/30 05:17:27;;;;;;;18.05;9.27;;;8.00;82.20;;;;;;9178540;19;20015;-67
2024/01/30 05:20:35;;;;;;;13.95;8.98;;;7.90;82.00;;;;;;9178458;19;20022;-67
2024/01/30 05:23:41;;;;;;;20.45;10.57;;;7.90;82.10;;;;;;9178375;19;20018;-67
2024/01/30 05:26:51;;;;;;;22.00;10.43;;;8.00;82.10;;;;;;9177236;19;20018;-65
2024/01/30 05:29:59;;;;;;;22.10;10.38;;;8.20;82.30;;;;;;9177157;19;20026;-66
2024/01/30 05:33:07;;;;;;;19.88;9.75;;;8.00;82.40;;;;;;9173289;19;21513;-67
2024/01/30 05:36:14;;;;;;;15.55;9.85;;;8.00;82.30;;;;;;9177622;19;20094;-68
2024/01/30 05:39:22;;;;;;;18.63;9.20;;;8.00;82.20;;;;;;9177569;19;20470;-67
2024/01/30 05:42:28;;;;;;;18.52;9.82;;;8.00;82.20;;;;;;9177200;19;20022;-65
2024/01/30 05:45:38;;;;;;;18.95;9.02;;;8.00;82.20;;;;;;9175276;19;20103;-67
2024/01/30 05:48:44;;;;;;;21.05;10.00;;;8.20;82.30;;;;;;9175011;19;20086;-67
2024/01/30 05:51:51;;;;;;;20.88;10.60;;;8.00;82.20;;;;;;9177189;19;20018;-67
2024/01/30 05:54:57;;;;;;;20.05;9.80;;;8.00;82.70;;;;;;9176040;19;20365;-67
2024/01/30 05:58:05;;;;;;;19.90;10.18;;;8.00;82.20;;;;;;9176162;19;20457;-66
2024/01/30 06:01:13;;;;;;;26.00;9.90;;;8.00;82.20;;;;;;9175916;19;20014;-67
2024/01/30 06:04:20;;;;;;;20.10;10.23;;;8.00;82.30;;;;;;9175043;19;20018;-66
2024/01/30 06:07:26;;;;;;;22.63;9.07;;;8.00;82.30;;;;;;9172680;19;20081;-67
2024/01/30 06:10:35;;;;;;;19.95;9.93;;;8.00;82.20;;;;;;9175704;19;20493;-66
2024/01/30 06:13:40;;;;;;;16.25;8.95;;;8.00;82.30;;;;;;9176050;19;20010;-66
2024/01/30 06:16:51;;;;;;;20.30;9.85;;;8.00;82.40;;;;;;9175206;19;20057;-66
2024/01/30 06:19:56;;;;;;;20.65;9.80;;;8.10;82.50;;;;;;9175191;19;20015;-66
2024/01/30 06:23:04;;;;;;;20.35;9.85;;;8.00;82.40;;;;;;9176239;19;20487;-66
2024/01/30 06:26:10;;;;;;;19.50;8.80;;;8.00;82.40;;;;;;9175326;19;20015;-67
2024/01/30 06:29:17;;;;;;;21.63;10.27;;;8.00;82.50;;;;;;9172940;19;20029;-67
2024/01/30 06:32:27;;;;;;;21.58;9.82;;;8.00;82.40;;;;;;9170993;19;20023;-66
2024/01/30 06:35:36;;;;;;;17.25;9.13;;;8.10;83.20;;;;;;9175184;19;20021;-66
2024/01/30 06:38:41;;;;;;;22.52;10.32;;;8.00;82.40;;;;;;9174306;19;20014;-66
2024/01/30 06:41:49;;;;;;;17.08;9.38;;;8.10;82.50;;;;;;9173606;19;20021;-66
2024/01/30 06:44:55;;;;;;;17.88;9.80;;;8.10;82.40;;;;;;9174867;19;20592;-66
2024/01/30 06:48:05;;;;;;;23.95;9.98;;;8.10;82.50;;;;;;9173608;19;20484;-67
2024/01/30 06:51:11;;;;;;;14.63;9.48;;;8.10;82.50;;;;;;9175405;19;20014;-66
2024/01/30 06:54:21;;;;;;;16.45;9.10;;;8.10;82.50;;;;;;9175580;19;20025;-69
2024/01/30 06:57:27;;;;;;;17.98;9.60;;;8.10;82.50;;;;;;9174957;19;20077;-66
2024/01/30 07:00:36;;;;;;;22.65;10.40;;;8.20;82.50;;;;;;9173406;19;20337;-67
2024/01/30 07:03:44;;;;;;;17.92;9.18;;;8.20;82.60;;;;;;9173999;19;20014;-67
2024/01/30 07:06:53;;;;;;;21.80;10.43;;;8.20;82.70;;;;;;9171973;19;20025;-66
2024/01/30 07:09:59;;;;;;;19.67;10.15;;;8.20;82.80;;;;;;9168280;19;20056;-68
2024/01/30 07:13:08;;;;;;;17.30;9.27;;;8.20;82.70;;;;;;9173239;19;20015;-66
2024/01/30 07:16:13;;;;;;;18.20;9.40;;;8.20;82.70;;;;;;9175651;19;20059;-67
2024/01/30 07:19:24;;;;;;;16.20;8.77;;;8.20;82.90;;;;;;9182326;19;20015;-67
2024/01/30 07:22:29;;;;;;;21.35;10.35;;;8.30;82.80;;;;;;9181878;19;20607;-67
2024/01/30 07:25:37;;;;;;;16.20;9.38;;;8.30;82.80;;;;;;9182028;19;20018;-66
2024/01/30 07:28:43;;;;;;;18.33;9.70;;;8.40;82.70;;;;;;9180460;19;20042;-66
2024/01/30 07:31:51;;;;;;;22.33;9.65;;;8.40;82.80;;;;;;9178422;19;20026;-66
2024/01/30 07:34:59;;;;;;;17.38;9.25;;;8.40;82.80;;;;;;9180605;19;20085;-65
2024/01/30 07:38:15;;;;;;;17.52;9.55;;;8.40;82.90;;;;;;9178038;19;20369;-66
2024/01/30 07:41:20;;;;;;;16.67;9.05;;;8.40;82.90;;;;;;9181574;19;20022;-66
2024/01/30 07:44:28;;;;;;;21.35;10.52;;;8.50;83.00;;;;;;9180178;19;20389;-66
2024/01/30 07:47:33;;;;;;;17.85;9.15;;;8.50;82.90;;;;;;9180249;19;20465;-70
2024/01/30 07:50:44;;;;;;;21.08;10.40;;;8.50;83.10;;;;;;9179382;19;20014;-66
2024/01/30 07:53:58;;;;;;;17.42;8.85;;;8.50;83.00;;;;;;9181549;19;20514;-66
2024/01/30 07:57:05;;;;;;;17.02;8.60;;;8.50;83.10;;;;;;9181159;19;20015;-65
2024/01/30 08:00:12;;;;;;;16.08;8.88;;;8.60;83.20;;;;;;9180340;19;20026;-65
2024/01/30 08:03:20;;;;;;;17.65;8.88;;;8.60;83.10;;;;;;9180875;19;20014;-67
2024/01/30 08:06:28;;;;;;;20.15;10.25;;;8.60;83.20;;;;;;9179630;19;20018;-66
2024/01/30 08:09:35;;;;;;;22.40;9.00;;;8.70;83.80;;;;;;9179187;19;20025;-66
2024/01/30 08:12:41;;;;;;;16.20;8.07;;;8.70;83.20;;;;;;9181173;19;20475;-66
2024/01/30 08:15:49;;;;;;;17.13;8.77;;;8.70;83.30;;;;;;9179263;19;20022;-66
2024/01/30 08:18:57;;;;;;;17.50;7.82;;;8.80;83.30;;;;;;9179730;19;20011;-66
2024/01/30 08:22:08;;;;;;;16.80;8.85;;;8.80;83.20;;;;;;9179211;19;20389;-66
2024/01/30 08:25:14;;;;;;;13.65;7.53;;;8.80;83.20;;;;;;9178210;19;20022;-67
2024/01/30 08:28:21;;;;;;;13.38;7.90;;;8.90;83.40;;;;;;9177908;19;20014;-67
2024/01/30 08:31:27;;;;;;;15.23;8.05;;;9.00;83.50;;;;;;9176322;19;20014;-66
2024/01/30 08:34:36;;;;;;;14.48;7.28;;;9.00;83.40;;;;;;9176917;19;20426;-67
2024/01/30 08:37:44;;;;;;;11.88;7.22;;;9.00;83.40;;;;;;9178782;19;20011;-66
2024/01/30 08:40:52;;;;;;;14.27;7.95;;;9.10;83.40;;;;;;9178494;19;20025;-66
2024/01/30 08:43:57;;;;;;;17.45;8.88;;;9.10;83.50;;;;;;9179488;19;20018;-65
2024/01/30 08:47:05;;;;;;;15.90;7.70;;;9.20;83.50;;;;;;9178512;19;20019;-65
2024/01/30 08:50:11;;;;;;;14.07;7.53;;;9.20;83.40;;;;;;9176751;19;20014;-68
2024/01/30 08:53:21;;;;;;;12.52;7.18;;;9.30;83.50;;;;;;9178306;19;20683;-67
2024/01/30 08:56:27;;;;;;;11.90;6.53;;;9.40;84.10;;;;;;9177071;19;20045;-67
2024/01/30 08:59:35;;;;;;;14.05;6.85;;;9.40;83.50;;;;;;9177771;19;20369;-67
2024/01/30 09:02:40;;;;;;;16.42;7.05;;;9.40;83.40;;;;;;9178108;19;20078;-67
2024/01/30 09:05:48;;;;;;;14.95;7.63;;;9.50;83.50;;;;;;9177591;19;20033;-67
2024/01/30 09:08:57;;;;;;;20.05;6.65;;;9.50;83.40;;;;;;9174994;19;20015;-67
2024/01/30 09:12:08;;;;;;;14.07;7.35;;;9.60;83.50;;;;;;9175521;19;20015;-67
2024/01/30 09:15:14;;;;;;;13.85;7.20;;;9.60;83.40;;;;;;9177161;19;20014;-67
2024/01/30 09:18:22;;;;;;;12.52;6.32;;;9.70;83.50;;;;;;9176248;19;20496;-66
2024/01/30 09:21:28;;;;;;;13.20;6.57;;;9.70;83.40;;;;;;9177222;19;20026;-65
2024/01/30 09:24:38;;;;;;;11.98;6.75;;;9.80;83.50;;;;;;9177634;19;20026;-67
2024/01/30 09:27:43;;;;;;;14.45;7.50;;;9.80;83.40;;;;;;9177412;19;20010;-68
2024/01/30 09:30:51;;;;;;;12.50;6.85;;;9.90;83.50;;;;;;9170598;19;20015;-67
2024/01/30 09:33:56;;;;;;;11.98;6.50;;;9.90;83.50;;;;;;9177219;19;20118;-68
2024/01/30 09:37:04;;;;;;;14.25;6.75;;;10.00;83.60;;;;;;9176886;19;20018;-68
2024/01/30 09:40:13;;;;;;;12.45;7.07;;;10.00;83.60;;;;;;9172277;19;20025;-68
2024/01/30 09:43:25;;;;;;;14.02;7.22;;;10.10;83.60;;;;;;9176566;19;20491;-68
2024/01/30 09:46:34;;;;;;;12.68;7.05;;;10.20;83.60;;;;;;9177230;19;20832;-67
2024/01/30 09:49:44;;;;;;;17.15;7.03;;;10.30;83.70;;;;;;9174866;19;20022;-66
2024/01/30 09:52:50;;;;;;;18.27;6.97;;;10.30;83.60;;;;;;9177478;19;20048;-66
2024/01/30 09:56:01;;;;;;;13.98;6.40;;;10.40;83.60;;;;;;9175519;19;20381;-66
2024/01/30 09:59:06;;;;;;;13.77;6.82;;;10.50;83.60;;;;;;9175750;19;20007;-66
2024/01/30 10:02:14;;;;;;;13.05;7.28;;;10.50;83.40;;;;;;9175891;19;20022;-66
2024/01/30 10:05:21;;;;;;;17.98;7.57;;;10.80;83.60;;;;;;9176682;19;20014;-65
2024/01/30 10:08:29;;;;;;;17.25;7.38;;;10.70;83.60;;;;;;9174972;19;20106;-66
2024/01/30 10:11:38;;;;;;;11.90;6.35;;;10.80;83.40;;;;;;9172981;19;20021;-65
2024/01/30 10:14:46;;;;;;;15.70;7.30;;;10.80;83.30;;;;;;9176423;19;20029;-65
2024/01/30 10:17:52;;;;;;;13.98;6.45;;;10.80;83.20;;;;;;9174873;19;20377;-65
2024/01/30 10:21:00;;;;;;;13.68;6.65;;;10.90;83.30;;;;;;9171634;19;20021;-65
2024/01/30 10:24:06;;;;;;;18.77;7.43;;;10.90;83.40;;;;;;9174085;19;20089;-65
2024/01/30 10:27:16;;;;;;;12.43;6.97;;;10.90;83.20;;;;;;9162571;19;20002;-65
2024/01/30 10:30:22;;;;;;;13.32;7.22;;;11.00;83.40;;;;;;9161221;19;20020;-65
2024/01/30 10:33:30;;;;;;;12.52;6.80;;;11.00;83.10;;;;;;9166368;19;20007;-65
2024/01/30 10:36:43;;;;;;;17.38;7.53;;;11.20;83.30;;;;;;9172887;19;20653;-66
2024/01/30 10:39:50;;;;;;;11.43;6.38;;;11.10;83.20;;;;;;9173944;19;20011;-65
2024/01/30 10:42:59;;;;;;;17.30;7.53;;;11.20;83.30;;;;;;9174955;19;20094;-65
2024/01/30 10:46:14;;;;;;;14.05;7.28;;;11.30;83.20;;;;;;9173379;19;20018;-64
2024/01/30 10:49:21;;;;;;;10.73;6.20;;;11.30;83.50;;;;;;9170778;19;20010;-65
2024/01/30 10:52:29;;;;;;;12.57;6.82;;;11.30;83.30;;;;;;9174199;19;20006;-65
2024/01/30 10:55:37;;;;;;;15.13;7.00;;;11.30;83.10;;;;;;9183042;19;20018;-65
2024/01/30 10:58:47;;;;;;;13.27;6.75;;;11.30;83.10;;;;;;9180541;19;20026;-64
2024/01/30 11:01:53;;;;;;;14.80;6.80;;;11.40;83.10;;;;;;9182541;19;20015;-65
2024/01/30 11:05:02;;;;;;;14.20;7.50;;;11.30;83.00;;;;;;9181162;19;20606;-65
2024/01/30 11:08:15;;;;;;;18.02;7.55;;;11.50;83.10;;;;;;9180667;19;20030;-65
2024/01/30 11:11:23;;;;;;;13.98;6.90;;;11.50;83.30;;;;;;9181742;19;20011;-65
2024/01/30 11:14:33;;;;;;;22.13;7.95;;;11.60;83.10;;;;;;9180947;19;20018;-65
2024/01/30 11:17:48;;;;;;;16.15;7.68;;;11.60;83.10;;;;;;9180176;19;20029;-65
2024/01/30 11:20:54;;;;;;;15.15;7.15;;;11.70;83.20;;;;;;9179846;19;20451;-65
2024/01/30 11:24:05;;;;;;;11.43;6.32;;;11.70;83.10;;;;;;9179330;19;20355;-66
2024/01/30 11:27:12;;;;;;;18.08;8.02;;;11.80;83.00;;;;;;9182234;19;20026;-67
2024/01/30 11:30:31;;;;;;;16.50;7.97;;;11.90;83.00;;;;;;9180601;19;20022;-66
2024/01/30 11:33:38;;;;;;;14.40;6.82;;;11.90;83.00;;;;;;9177031;19;20006;-65
2024/01/30 11:36:47;;;;;;;10.57;5.65;;;11.90;83.00;;;;;;9181275;19;20018;-66
2024/01/30 11:39:54;;;;;;;18.60;7.30;;;12.00;83.00;;;;;;9180779;19;20085;-65
2024/01/30 11:43:03;;;;;;;14.20;6.25;;;12.10;83.00;;;;;;9179782;19;20021;-66
2024/01/30 11:46:12;;;;;;;15.73;6.35;;;12.10;83.10;;;;;;9181115;19;20021;-66
2024/01/30 11:49:19;;;;;;;12.52;6.07;;;12.10;83.00;;;;;;9180634;19;20484;-66
2024/01/30 11:52:26;;;;;;;14.07;6.07;;;12.20;83.20;;;;;;9177600;19;20014;-66
2024/01/30 11:55:35;;;;;;;15.63;6.65;;;12.20;82.90;;;;;;9181927;19;20025;-66
2024/01/30 11:58:45;;;;;;;14.10;6.10;;;12.20;83.60;;;;;;9180858;19;20022;-66
2024/01/30 12:01:57;;;;;;;14.70;5.95;;;12.30;82.90;;;;;;9179499;19;20439;-66
2024/01/30 12:05:06;;;;;;;15.73;5.85;;;12.30;82.80;;;;;;9178042;19;20104;-67
2024/01/30 12:08:18;;;;;;;14.70;5.47;;;12.30;82.80;;;;;;9178557;19;20011;-66
2024/01/30 12:11:24;;;;;;;12.27;5.65;;;12.30;82.80;;;;;;9179340;19;20036;-67
2024/01/30 12:14:32;;;;;;;11.93;5.82;;;12.30;82.70;;;;;;9180095;19;20018;-65
2024/01/30 12:17:40;;;;;;;11.70;5.70;;;12.30;82.60;;;;;;9180341;19;20018;-68
2024/01/30 12:20:47;;;;;;;13.68;6.45;;;12.40;82.50;;;;;;9178116;19;20010;-66
2024/01/30 12:23:54;;;;;;;13.27;6.60;;;12.50;82.70;;;;;;9180019;19;20014;-68
2024/01/30 12:27:02;;;;;;;16.00;6.40;;;12.40;82.50;;;;;;9179566;19;20014;-67
2024/01/30 12:30:09;;;;;;;10.95;5.93;;;12.50;82.70;;;;;;9180633;19;20846;-67
2024/01/30 12:33:22;;;;;;;18.08;6.70;;;12.50;82.50;;;;;;9172494;19;20018;-67
2024/01/30 12:36:27;;;;;;;13.73;6.75;;;12.50;82.60;;;;;;9176524;19;20014;-67
2024/01/30 12:39:35;;;;;;;13.38;6.18;;;12.60;82.50;;;;;;9179605;19;20018;-65
2024/01/30 12:42:41;;;;;;;11.43;6.28;;;12.60;82.50;;;;;;9178875;19;20017;-67
2024/01/30 12:45:50;;;;;;;14.32;6.60;;;12.60;82.30;;;;;;9178917;19;20019;-66
2024/01/30 12:48:58;;;;;;;10.75;6.32;;;12.60;82.20;;;;;;9178094;19;20011;-66
2024/01/30 12:52:06;;;;;;;15.50;6.93;;;12.60;82.20;;;;;;9177210;19;20025;-67
2024/01/30 12:55:12;;;;;;;20.50;6.63;;;12.70;82.20;;;;;;9178483;19;20025;-67
2024/01/30 12:58:20;;;;;;;15.93;6.43;;;12.70;82.30;;;;;;9178530;19;20029;-67
2024/01/30 13:01:26;;;;;;;17.88;6.70;;;12.70;82.20;;;;;;9176124;19;20018;-67
2024/01/30 13:04:36;;;;;;;13.55;6.97;;;12.70;82.20;;;;;;9176447;19;20485;-67
2024/01/30 13:07:42;;;;;;;15.43;6.97;;;12.70;82.20;;;;;;9175135;19;20017;-67
2024/01/30 13:10:49;;;;;;;13.43;6.45;;;12.80;82.10;;;;;;9173878;19;20022;-67
2024/01/30 13:13:55;;;;;;;16.30;6.93;;;12.80;82.00;;;;;;9175995;19;20072;-66
2024/01/30 13:17:03;;;;;;;16.48;7.15;;;12.90;82.20;;;;;;9173312;19;20025;-66
2024/01/30 13:20:14;;;;;;;14.82;6.82;;;12.90;82.10;;;;;;9175133;19;20495;-66
2024/01/30 13:23:21;;;;;;;12.93;6.73;;;12.90;82.10;;;;;;9178368;19;20018;-66
2024/01/30 13:26:27;;;;;;;21.70;6.75;;;12.90;82.10;;;;;;9175267;19;20029;-67
2024/01/30 13:29:35;;;;;;;9.73;5.15;;;12.90;82.10;;;;;;9174680;19;20011;-66
2024/01/30 13:32:41;;;;;;;9.82;4.63;;;13.00;81.90;;;;;;9169711;19;20010;-67
2024/01/30 13:35:51;;;;;;;15.63;5.10;;;12.90;81.80;;;;;;9173936;19;20025;-68
2024/01/30 13:38:57;;;;;;;16.30;4.90;;;13.00;81.80;;;;;;9175293;19;20545;-67
2024/01/30 13:42:06;;;;;;;9.65;4.40;;;12.90;81.70;;;;;;9174789;19;20362;-69
2024/01/30 13:45:12;;;;;;;18.35;4.40;;;12.90;81.50;;;;;;9173054;19;20024;-67
2024/01/30 13:48:19;;;;;;;9.93;4.32;;;12.90;81.30;;;;;;9174540;19;20025;-66
2024/01/30 13:51:28;;;;;;;8.38;4.05;;;12.90;81.30;;;;;;9173767;19;20095;-68
2024/01/30 13:54:35;;;;;;;14.25;3.95;;;13.00;81.30;;;;;;9172900;19;20495;-67
2024/01/30 13:57:41;;;;;;;7.32;2.88;;;13.00;81.30;;;;;;9173929;19;20022;-67
2024/01/30 14:00:49;;;;;;;9.07;2.58;;;13.00;81.10;;;;;;9175120;19;20349;-67
2024/01/30 14:03:54;;;;;;;7.95;2.58;;;12.90;80.90;;;;;;9175142;19;20026;-67
2024/01/30 14:07:05;;;;;;;7.97;2.45;;;12.80;80.70;;;;;;9173825;19;20032;-66
2024/01/30 14:10:13;;;;;;;5.85;2.00;;;12.80;80.60;;;;;;9175742;19;20669;-67
2024/01/30 14:13:22;;;;;;;6.38;2.08;;;12.80;80.70;;;;;;9170390;19;20021;-67
2024/01/30 14:16:28;;;;;;;11.25;2.10;;;12.70;80.60;;;;;;9173791;19;20430;-66
2024/01/30 14:19:36;;;;;;;5.55;1.85;;;12.60;80.40;;;;;;9173658;19;20015;-68
2024/01/30 14:22:45;;;;;;;2.42;1.65;;;12.60;80.30;;;;;;9173082;19;20361;-66
2024/01/30 14:25:54;;;;;;;7.47;2.03;;;12.50;80.40;;;;;;9174098;19;20039;-67
2024/01/30 14:28:59;;;;;;;4.78;1.92;;;12.50;80.30;;;;;;9182543;19;20018;-67
2024/01/30 14:32:08;;;;;;;2.97;2.00;;;12.50;80.30;;;;;;9176365;19;20014;-67
2024/01/30 14:35:13;;;;;;;4.35;1.60;;;12.50;80.20;;;;;;9181105;19;20112;-67
2024/01/30 14:38:24;;;;;;;2.55;1.52;;;12.40;80.20;;;;;;9182891;19;20025;-68
2024/01/30 14:41:30;;;;;;;7.82;2.83;;;12.40;80.00;;;;;;9181720;19;20519;-66
2024/01/30 14:44:38;;;;;;;5.15;2.50;;;12.30;79.90;;;;;;9182101;19;20022;-68
2024/01/30 14:47:43;;;;;;;11.10;4.70;;;12.40;80.10;;;;;;9182272;19;20018;-66
2024/01/30 14:50:51;;;;;;;12.98;2.90;;;12.20;79.80;;;;;;9182620;19;20019;-67
2024/01/30 14:53:59;;;;;;;6.55;2.58;;;12.10;79.70;;;;;;9180697;19;20019;-67
2024/01/30 14:57:08;;;;;;;7.88;2.55;;;12.10;79.70;;;;;;9182920;19;20015;-67
2024/01/30 15:00:16;;;;;;;5.38;2.50;;;12.00;79.60;;;;;;9183567;19;20013;-67
2024/01/30 15:03:23;;;;;;;7.28;2.50;;;12.00;79.70;;;;;;9182851;19;20471;-66
2024/01/30 15:06:33;;;;;;;6.57;2.30;;;11.90;79.60;;;;;;9182662;19;20018;-66
2024/01/30 15:09:43;;;;;;;6.82;3.53;;;11.80;79.60;;;;;;9179369;19;20017;-65
2024/01/30 15:12:49;;;;;;;5.20;2.22;;;11.80;79.70;;;;;;9182014;19;20030;-66
2024/01/30 15:15:56;;;;;;;8.30;2.50;;;11.70;79.60;;;;;;9182918;19;20464;-65
2024/01/30 15:19:02;;;;;;;8.05;2.67;;;11.60;79.60;;;;;;9182518;19;20011;-66
2024/01/30 15:22:10;;;;;;;7.03;3.05;;;11.60;79.80;;;;;;9181886;19;20022;-66
2024/01/30 15:25:18;;;;;;;9.45;3.17;;;11.60;79.80;;;;;;9182433;19;20409;-66
2024/01/30 15:28:38;;;;;;;6.32;2.20;;;11.50;79.80;;;;;;9180229;19;20015;-67
2024/01/30 15:31:44;;;;;;;6.63;2.03;;;11.50;79.80;;;;;;9178539;19;20015;-66
2024/01/30 15:34:51;;;;;;;8.23;2.33;;;11.40;79.80;;;;;;9177085;19;20011;-65
2024/01/30 15:37:57;;;;;;;7.30;2.15;;;11.40;79.80;;;;;;9179091;19;20101;-66
2024/01/30 15:41:07;;;;;;;4.80;2.47;;;11.30;79.60;;;;;;9179308;19;20019;-66
2024/01/30 15:44:13;;;;;;;4.20;2.00;;;11.30;79.60;;;;;;9178505;19;20517;-67
2024/01/30 15:47:20;;;;;;;3.50;2.25;;;11.20;79.70;;;;;;9179186;19;20026;-66
2024/01/30 15:50:27;;;;;;;5.85;1.73;;;11.20;79.80;;;;;;9179150;19;20030;-65
2024/01/30 15:53:35;;;;;;;4.80;2.08;;;11.10;79.90;;;;;;9177745;19;20484;-67
2024/01/30 15:56:43;;;;;;;4.18;2.05;;;11.10;80.00;;;;;;9180923;19;20018;-66
2024/01/30 15:59:50;;;;;;;3.95;1.60;;;11.00;80.00;;;;;;9181014;19;20022;-66
2024/01/30 16:02:57;;;;;;;3.97;1.60;;;10.90;79.90;;;;;;9179314;19;20093;-65
2024/01/30 16:06:05;;;;;;;7.80;1.70;;;11.00;80.00;;;;;;9181413;19;20010;-66
2024/01/30 16:09:11;;;;;;;6.82;1.48;;;10.80;80.00;;;;;;9181617;19;20022;-68
2024/01/30 16:12:21;;;;;;;4.13;1.42;;;10.90;80.20;;;;;;9180926;19;20018;-66